Time;durP1;ratioP1;P1;durP2;ratioP2;P2;SDS_P1;SDS_P2;PMS_P1;PMS_P2;Temp;Humidity;BMP_temperature;BMP_pressure;BME280_temperature;BME280_humidity;BME280_pressure;Samples;Min_cycle;Max_cycle;Signal;HPM_P1;HPM_P2
2021/11/10 00:00:32;;;;;;;;;61.50;50.50;;;;;6.87;66.03;102381.78;5060102;28;47353;-81
2021/11/10 00:02:57;;;;;;;;;67.00;52.00;;;;;6.91;65.57;102378.34;5055523;28;45924;-81
2021/11/10 00:05:23;;;;;;;;;63.75;49.25;;;;;6.88;65.62;102378.31;5064946;27;48141;-81
2021/11/10 00:07:49;;;;;;;;;64.00;50.00;;;;;6.86;65.79;102374.81;5052505;28;45368;-81
2021/11/10 00:10:15;;;;;;;;;62.00;46.50;;;;;6.84;66.09;102363.47;5059924;28;45296;-80
2021/11/10 00:12:42;;;;;;;;;64.00;47.50;;;;;6.83;65.64;102369.56;5060592;28;45444;-80
2021/11/10 00:15:09;;;;;;;;;62.75;50.00;;;;;6.82;65.77;102362.56;5061296;28;45460;-80
2021/11/10 00:17:35;;;;;;;;;63.50;49.25;;;;;6.80;65.92;102359.94;5050233;28;45457;-80
2021/11/10 00:20:00;;;;;;;;;61.75;48.50;;;;;6.80;65.43;102359.06;5047321;28;45166;-80
2021/11/10 00:22:26;;;;;;;;;61.50;48.50;;;;;6.78;65.49;102361.69;5048112;28;45422;-80
2021/11/10 00:24:52;;;;;;;;;64.50;50.00;;;;;6.75;65.67;102341.63;5051121;28;46437;-80
2021/11/10 00:27:18;;;;;;;;;62.75;48.50;;;;;6.74;65.56;102321.56;5048304;28;45516;-79
2021/11/10 00:29:44;;;;;;;;;61.00;47.25;;;;;6.75;66.24;102325.06;5055764;28;45268;-80
2021/11/10 00:32:09;;;;;;;;;62.75;49.00;;;;;6.71;65.90;102329.41;5059528;28;45335;-79
2021/11/10 00:34:35;;;;;;;;;60.25;48.25;;;;;6.71;65.37;102347.69;5060087;28;45563;-79
2021/11/10 00:37:01;;;;;;;;;58.75;45.75;;;;;6.72;65.77;102359.00;5057454;28;45404;-79
2021/11/10 00:39:26;;;;;;;;;63.75;47.25;;;;;6.70;65.84;102352.88;5076612;28;45417;-79
2021/11/10 00:41:51;;;;;;;;;59.50;46.75;;;;;6.68;65.91;102349.38;5060766;28;45397;-80
2021/11/10 00:44:17;;;;;;;;;63.75;49.75;;;;;6.65;65.65;102339.78;5059899;28;45437;-82
2021/11/10 00:46:42;;;;;;;;;59.75;48.50;;;;;6.67;65.60;102343.28;5057146;28;45471;-82
2021/11/10 00:49:08;;;;;;;;;65.75;49.75;;;;;6.65;65.92;102326.72;5059856;28;45361;-81
2021/11/10 00:51:33;;;;;;;;;59.75;48.50;;;;;6.63;65.92;102312.75;5059976;28;45499;-81
2021/11/10 00:53:58;;;;;;;;;55.50;45.75;;;;;6.63;65.78;102320.59;5060052;28;45371;-81
2021/11/10 00:56:25;;;;;;;;;56.25;47.00;;;;;6.62;65.48;102321.44;5059100;28;45547;-85
2021/11/10 00:58:50;;;;;;;;;60.75;48.75;;;;;6.58;65.48;102315.34;5059889;28;45279;-80
2021/11/10 01:01:16;;;;;;;;;56.25;45.00;;;;;6.59;65.65;102314.44;5059516;28;45197;-80
2021/11/10 01:03:41;;;;;;;;;64.00;49.50;;;;;6.55;65.70;102296.13;5055361;28;45619;-80
2021/11/10 01:06:06;;;;;;;;;60.25;47.50;;;;;6.52;65.52;102287.41;5057956;28;45157;-80
2021/11/10 01:08:32;;;;;;;;;60.75;47.25;;;;;6.51;65.42;102285.66;5060464;28;45208;-80
2021/11/10 01:10:58;;;;;;;;;61.00;50.00;;;;;6.51;65.55;102298.72;5057987;28;45212;-80
2021/11/10 01:13:23;;;;;;;;;58.50;48.50;;;;;6.48;65.40;102296.09;5049259;28;45558;-80
2021/11/10 01:15:49;;;;;;;;;58.50;47.50;;;;;6.49;65.66;102303.06;5060472;28;45185;-80
2021/11/10 01:18:15;;;;;;;;;56.75;45.25;;;;;6.48;65.83;102298.69;5063797;27;45506;-81
2021/11/10 01:20:41;;;;;;;;;61.00;48.00;;;;;6.46;65.44;102303.03;5038802;28;46456;-82
2021/11/10 01:23:08;;;;;;;;;60.00;48.00;;;;;6.47;65.74;102309.13;5068440;27;47943;-83
2021/11/10 01:25:34;;;;;;;;;64.00;50.00;;;;;6.46;65.76;102307.38;5058835;28;45390;-82
2021/11/10 01:28:00;;;;;;;;;61.25;48.25;;;;;6.42;66.33;102314.28;5052032;28;46638;-85
2021/11/10 01:30:25;;;;;;;;;60.50;48.25;;;;;6.40;65.90;102297.72;5060106;28;45417;-85
2021/11/10 01:32:51;;;;;;;;;60.75;48.25;;;;;6.41;65.70;102312.56;5057572;28;46649;-85
2021/11/10 01:35:17;;;;;;;;;64.00;50.50;;;;;6.38;65.84;102304.69;5059877;28;45283;-84
2021/11/10 01:37:44;;;;;;;;;66.75;52.50;;;;;6.38;65.68;102304.69;5049765;28;45941;-84
2021/11/10 01:40:10;;;;;;;;;65.75;51.25;;;;;6.36;65.88;102306.41;5071803;28;45960;-84
2021/11/10 01:42:38;;;;;;;;;63.75;51.25;;;;;6.33;65.53;102307.25;5059990;28;45413;-84
2021/11/10 01:45:04;;;;;;;;;60.75;49.75;;;;;6.33;66.03;102307.25;5055887;28;45322;-83
2021/11/10 01:47:30;;;;;;;;;61.50;49.75;;;;;6.31;65.71;102293.31;5043096;28;45537;-83
2021/11/10 01:49:55;;;;;;;;;66.50;51.50;;;;;6.31;65.90;102285.47;5059777;28;45425;-84
2021/11/10 01:52:21;;;;;;;;;63.00;49.50;;;;;6.33;65.93;102301.16;5059806;28;45313;-83
2021/11/10 01:54:46;;;;;;;;;61.00;49.25;;;;;6.29;65.94;102295.91;5059875;28;45281;-83
2021/11/10 01:57:13;;;;;;;;;63.50;50.50;;;;;6.29;66.05;102290.69;5057645;28;45410;-84
2021/11/10 02:00:00;;;;;;;;;63.75;50.25;;;;;6.27;66.02;102295.00;5058428;28;45481;-84
2021/11/10 02:02:29;;;;;;;;;62.00;49.00;;;;;6.26;65.59;102295.88;5054071;28;46665;-85
2021/11/10 02:04:55;;;;;;;;;59.00;48.25;;;;;6.27;65.82;102307.19;5058157;28;45400;-84
2021/11/10 02:07:21;;;;;;;;;63.25;50.00;;;;;6.27;65.90;102313.28;5056269;28;45524;-84
2021/11/10 02:09:49;;;;;;;;;59.00;46.75;;;;;6.25;65.95;102314.13;5059491;28;45261;-84
2021/11/10 02:12:15;;;;;;;;;64.75;50.00;;;;;6.24;65.91;102291.50;5053155;28;46507;-84
2021/11/10 02:14:41;;;;;;;;;60.25;47.00;;;;;6.22;65.66;102286.25;5059329;28;45362;-85
2021/11/10 02:17:13;;;;;;;;;63.75;50.75;;;;;6.22;65.72;102283.66;5057099;28;45437;-83
2021/11/10 02:19:39;;;;;;;;;58.75;49.00;;;;;6.20;65.81;102290.56;5048228;28;45411;-83
2021/11/10 02:22:05;;;;;;;;;63.50;49.25;;;;;6.17;65.83;102286.19;5049008;28;45447;-84
2021/11/10 02:24:32;;;;;;;;;66.25;52.00;;;;;6.16;65.60;102286.19;5057695;28;45675;-84
2021/11/10 02:26:57;;;;;;;;;59.75;48.50;;;;;6.14;65.34;102298.34;5057255;28;45334;-85
2021/11/10 02:29:26;;;;;;;;;61.25;49.00;;;;;6.12;65.86;102293.13;5058547;28;45848;-86
2021/11/10 02:31:54;;;;;;;;;65.25;51.25;;;;;6.10;65.62;102286.97;5056598;28;46262;-84
2021/11/10 02:34:20;;;;;;;;;67.00;51.75;;;;;6.10;65.59;102276.53;5047475;28;45232;-83
2021/11/10 02:36:45;;;;;;;;;61.75;49.50;;;;;6.07;65.67;102273.91;5058473;28;45430;-84
2021/11/10 02:39:21;;;;;;;;;61.75;49.50;;;;;6.06;65.58;102267.78;5057722;28;45299;-84
2021/11/10 02:41:47;;;;;;;;;68.00;55.25;;;;;6.04;65.62;102269.50;5058340;28;46511;-84
2021/11/10 02:44:20;;;;;;;;;67.25;52.25;;;;;6.02;65.30;102260.78;5058266;28;45359;-82
2021/11/10 02:46:49;;;;;;;;;69.50;54.00;;;;;5.99;65.72;102260.75;5057320;28;45417;-82
2021/11/10 02:49:15;;;;;;;;;67.75;53.50;;;;;5.99;65.76;102262.47;5060592;28;45437;-82
2021/11/10 02:52:00;;;;;;;;;73.50;56.25;;;;;5.97;65.50;102271.16;5062651;28;45413;-79
2021/11/10 02:54:27;;;;;;;;;72.75;55.00;;;;;5.96;65.72;102272.03;5050933;28;45240;-79
2021/11/10 02:56:55;;;;;;;;;71.75;56.00;;;;;5.97;66.03;102267.69;5059748;28;45536;-79
2021/11/10 02:59:21;;;;;;;;;77.00;58.00;;;;;5.96;65.94;102278.97;5046402;28;45397;-79
2021/11/10 03:01:47;;;;;;;;;76.50;59.25;;;;;5.96;65.93;102271.13;5060053;28;45654;-79
2021/11/10 03:04:23;;;;;;;;;80.00;61.25;;;;;5.94;66.15;102265.03;5048702;28;45503;-80
2021/11/10 03:06:50;;;;;;;;;80.25;61.75;;;;;5.94;65.68;102259.81;5061495;28;45646;-78
2021/11/10 03:09:20;;;;;;;;;81.75;66.50;;;;;5.95;65.94;102261.56;5060709;28;45421;-79
2021/11/10 03:11:46;;;;;;;;;85.25;72.50;;;;;5.96;66.21;102268.53;5054671;28;46274;-80
2021/11/10 03:14:13;;;;;;;;;88.00;71.25;;;;;5.94;66.43;102257.22;5046462;28;45615;-81
2021/11/10 03:16:39;;;;;;;;;84.25;67.25;;;;;5.97;66.54;102259.84;5066631;27;45390;-81
2021/11/10 03:19:05;;;;;;;;;83.50;67.25;;;;;5.94;66.46;102257.22;5060745;28;45438;-82
2021/11/10 03:21:30;;;;;;;;;84.25;69.25;;;;;5.95;66.57;102264.19;5060543;28;45970;-83
2021/11/10 03:23:55;;;;;;;;;83.00;65.00;;;;;5.95;66.46;102265.03;5061488;28;45240;-84
2021/11/10 03:26:22;;;;;;;;;80.75;64.00;;;;;5.95;66.53;102266.81;5076721;28;45307;-84
2021/11/10 03:28:48;;;;;;;;;85.75;67.25;;;;;5.94;65.99;102263.31;5061046;28;45489;-84
2021/11/10 03:31:14;;;;;;;;;86.75;70.25;;;;;5.95;65.84;102277.25;5061412;28;46456;-84
2021/11/10 03:33:39;;;;;;;;;83.75;71.25;;;;;5.94;66.28;102280.69;5048829;28;45225;-84
2021/11/10 03:36:05;;;;;;;;;86.75;69.75;;;;;5.94;66.20;102291.13;5056611;28;45450;-82
2021/11/10 03:38:30;;;;;;;;;83.75;66.25;;;;;5.91;66.40;102288.47;5061095;28;45416;-82
2021/11/10 03:40:55;;;;;;;;;82.75;66.75;;;;;5.89;66.21;102279.75;5061649;28;45399;-82
2021/11/10 03:43:21;;;;;;;;;89.00;64.75;;;;;5.88;66.42;102267.59;5059624;28;45548;-82
2021/11/10 03:45:47;;;;;;;;;80.00;63.00;;;;;5.90;66.15;102263.25;5060479;28;45433;-82
2021/11/10 03:48:12;;;;;;;;;81.75;65.75;;;;;5.91;66.51;102278.03;5051063;28;45409;-83
2021/11/10 03:50:39;;;;;;;;;81.25;62.50;;;;;5.90;65.94;102276.31;5057724;28;46434;-82
2021/11/10 03:53:05;;;;;;;;;82.50;66.00;;;;;5.87;66.11;102276.25;5048062;28;45322;-82
2021/11/10 03:55:37;;;;;;;;;84.25;67.25;;;;;5.84;66.10;102277.97;5061878;28;45236;-83
2021/11/10 03:58:04;;;;;;;;;82.75;65.00;;;;;5.83;66.53;102276.22;5053237;28;46912;-81
2021/11/10 04:00:30;;;;;;;;;82.75;66.00;;;;;5.83;66.50;102293.59;5055960;28;46326;-81
2021/11/10 04:02:55;;;;;;;;;82.00;64.75;;;;;5.83;66.74;102298.81;5053507;28;45433;-81
2021/11/10 04:05:21;;;;;;;;;74.50;57.75;;;;;5.84;66.40;102301.47;5055176;28;45441;-81
2021/11/10 04:07:46;;;;;;;;;81.50;62.00;;;;;5.82;66.55;102307.53;5071333;27;46919;-85
2021/11/10 04:10:12;;;;;;;;;81.25;62.00;;;;;5.82;66.42;102342.34;5053535;28;45623;-83
2021/11/10 04:12:38;;;;;;;;;71.50;58.00;;;;;5.82;66.26;102358.00;5042253;28;45264;-83
2021/11/10 04:15:03;;;;;;;;;77.25;60.00;;;;;5.81;66.75;102339.69;5057150;28;45175;-84
2021/11/10 04:17:29;;;;;;;;;75.25;59.25;;;;;5.82;66.78;102336.22;5051665;28;46065;-81
2021/11/10 04:19:54;;;;;;;;;77.00;59.25;;;;;5.83;66.50;102341.47;5051034;28;45293;-81
2021/11/10 04:22:22;;;;;;;;;70.00;53.25;;;;;5.84;66.79;102339.72;5054821;28;45487;-81
2021/11/10 04:24:48;;;;;;;;;67.75;54.00;;;;;5.84;66.71;102329.28;5053018;28;45428;-81
2021/11/10 04:27:14;;;;;;;;;65.25;50.00;;;;;5.83;66.66;102312.75;5058731;28;45308;-77
2021/11/10 04:29:39;;;;;;;;;66.25;53.00;;;;;5.83;66.95;102317.09;5048091;28;45521;-78
2021/11/10 04:32:05;;;;;;;;;65.00;51.75;;;;;5.84;67.06;102317.13;5058194;28;45328;-79
2021/11/10 04:34:30;;;;;;;;;61.25;50.00;;;;;5.85;66.74;102323.22;5054487;28;45568;-82
2021/11/10 04:36:56;;;;;;;;;60.25;48.25;;;;;5.82;66.72;102316.25;5050393;28;46510;-82
2021/11/10 04:39:21;;;;;;;;;57.75;47.00;;;;;5.82;66.86;102316.25;5059475;28;45302;-83
2021/11/10 04:41:46;;;;;;;;;56.75;44.00;;;;;5.83;66.91;102323.19;5060164;28;45373;-82
2021/11/10 04:44:12;;;;;;;;;59.00;44.00;;;;;5.84;66.93;102314.53;5060723;28;45264;-82
2021/11/10 04:46:37;;;;;;;;;55.75;44.75;;;;;5.85;66.65;102325.84;5060202;28;45247;-81
2021/11/10 04:49:05;;;;;;;;;59.50;46.00;;;;;5.86;66.77;102330.19;5058803;28;46548;-79
2021/11/10 04:51:31;;;;;;;;;59.00;44.50;;;;;5.87;66.66;102329.34;5056164;28;45525;-79
2021/11/10 04:53:58;;;;;;;;;53.75;43.25;;;;;5.86;66.63;102327.56;5056440;28;45332;-79
2021/11/10 04:56:23;;;;;;;;;58.00;46.50;;;;;5.87;66.79;102320.63;5059894;28;45628;-79
2021/11/10 04:58:49;;;;;;;;;53.25;43.75;;;;;5.85;66.74;102307.56;5052233;28;46355;-79
2021/11/10 05:01:18;;;;;;;;;56.25;45.00;;;;;5.85;66.72;102291.91;5052037;28;45472;-79
2021/11/10 05:03:43;;;;;;;;;61.50;48.25;;;;;5.82;66.62;102284.94;5054686;28;45253;-79
2021/11/10 05:06:09;;;;;;;;;57.00;43.00;;;;;5.82;66.67;102276.22;5059543;28;45380;-79
2021/11/10 05:08:34;;;;;;;;;60.75;47.25;;;;;5.82;66.59;102274.47;5048908;28;46037;-80
2021/11/10 05:10:59;;;;;;;;;54.50;42.75;;;;;5.81;66.34;102267.50;5042896;28;45141;-78
2021/11/10 05:13:26;;;;;;;;;53.00;44.00;;;;;5.80;66.53;102268.34;5058951;28;45553;-80
2021/11/10 05:15:51;;;;;;;;;54.75;43.00;;;;;5.78;66.45;102262.25;5059119;28;45353;-80
2021/11/10 05:18:17;;;;;;;;;53.00;41.50;;;;;5.77;66.27;102260.50;5045343;28;45467;-80
2021/11/10 05:20:44;;;;;;;;;56.25;44.75;;;;;5.75;66.24;102262.22;5050324;28;45409;-80
2021/11/10 05:23:10;;;;;;;;;57.25;45.50;;;;;5.72;66.62;102262.19;5052565;28;45433;-80
2021/11/10 05:25:35;;;;;;;;;57.50;44.25;;;;;5.70;66.37;102243.91;5048514;28;45410;-79
2021/11/10 05:28:01;;;;;;;;;72.00;54.75;;;;;5.71;66.07;102245.63;5046689;28;45421;-79
2021/11/10 05:30:26;;;;;;;;;230.50;189.25;;;;;5.70;66.38;102233.47;5058982;28;45433;-81
2021/11/10 05:32:52;;;;;;;;;192.75;149.25;;;;;5.72;66.81;102231.75;5059197;28;45172;-81
2021/11/10 05:35:17;;;;;;;;;170.00;129.25;;;;;5.71;66.71;102223.88;5054960;28;45610;-81
2021/11/10 05:37:42;;;;;;;;;120.75;98.75;;;;;5.70;66.41;102238.69;5055219;28;46337;-83
2021/11/10 05:40:09;;;;;;;;;87.50;75.25;;;;;5.69;66.41;102229.09;5059877;28;45375;-81
2021/11/10 05:42:35;;;;;;;;;78.75;58.50;;;;;5.68;66.36;102234.31;5057852;28;45440;-81
2021/11/10 05:45:00;;;;;;;;;65.25;52.25;;;;;5.67;66.38;102237.75;5049158;28;45476;-82
2021/11/10 05:47:25;;;;;;;;;60.50;48.25;;;;;5.62;66.30;102222.94;5056102;28;46197;-78
2021/11/10 05:49:51;;;;;;;;;50.50;43.25;;;;;5.62;66.41;102215.13;5048365;28;45568;-79
2021/11/10 05:52:16;;;;;;;;;54.75;46.25;;;;;5.62;66.27;102230.75;5047643;28;45557;-79
2021/11/10 05:54:43;;;;;;;;;53.50;44.75;;;;;5.62;66.13;102240.31;5048101;28;45484;-79
2021/11/10 05:57:12;;;;;;;;;63.25;46.00;;;;;5.59;66.06;102254.19;5044620;28;45611;-80
2021/11/10 05:59:37;;;;;;;;;66.50;49.75;;;;;5.60;65.90;102247.25;5045266;28;45571;-81
2021/11/10 06:02:03;;;;;;;;;58.25;46.00;;;;;5.55;66.33;102254.16;5043508;28;45524;-80
2021/11/10 06:04:29;;;;;;;;;71.75;53.25;;;;;5.55;66.56;102257.63;5048673;28;45599;-77
2021/11/10 06:06:54;;;;;;;;;87.00;66.50;;;;;5.53;66.19;102272.41;5044785;28;45650;-78
2021/11/10 06:09:19;;;;;;;;;104.25;88.50;;;;;5.50;65.93;102273.22;5049993;28;45496;-78
2021/11/10 06:11:45;;;;;;;;;109.25;88.25;;;;;5.50;66.04;102288.88;5057610;28;45238;-78
2021/11/10 06:14:11;;;;;;;;;101.00;77.75;;;;;5.49;65.81;102299.28;5050881;28;47166;-78
2021/11/10 06:16:37;;;;;;;;;97.00;79.75;;;;;5.48;66.10;102305.34;5044117;28;46931;-78
2021/11/10 06:19:03;;;;;;;;;87.50;65.75;;;;;5.45;66.11;102315.75;5043587;28;47019;-78
2021/11/10 06:21:28;;;;;;;;;81.50;60.25;;;;;5.42;66.17;102323.50;5041352;28;45656;-78
2021/11/10 06:23:53;;;;;;;;;59.50;43.50;;;;;5.40;66.40;102323.50;5048986;28;45611;-78
2021/11/10 06:26:19;;;;;;;;;58.50;46.00;;;;;5.40;66.26;102318.28;5052114;28;45529;-78
2021/11/10 06:28:44;;;;;;;;;62.00;48.25;;;;;5.38;66.37;102315.63;5049940;28;45563;-78
2021/11/10 06:31:10;;;;;;;;;66.25;47.75;;;;;5.36;66.36;102322.56;5050958;28;45601;-80
2021/11/10 06:33:35;;;;;;;;;61.00;48.50;;;;;5.38;66.45;102335.66;5047966;28;46188;-78
2021/11/10 06:36:01;;;;;;;;;59.25;47.00;;;;;5.39;66.33;102338.25;5061082;28;45239;-78
2021/11/10 06:38:27;;;;;;;;;63.25;48.25;;;;;5.39;66.67;102329.56;5061728;28;45187;-76
2021/11/10 06:40:53;;;;;;;;;59.00;46.00;;;;;5.39;66.94;102346.09;5062903;28;45290;-77
2021/11/10 06:43:18;;;;;;;;;58.25;47.75;;;;;5.39;66.86;102346.09;5062336;28;45309;-77
2021/11/10 06:45:43;;;;;;;;;59.50;47.50;;;;;5.43;66.85;102356.56;5058776;28;46154;-77
2021/11/10 06:48:09;;;;;;;;;66.75;51.75;;;;;5.42;66.98;102362.63;5051069;28;45278;-77
2021/11/10 06:50:34;;;;;;;;;64.75;51.75;;;;;5.47;66.74;102376.63;5048747;28;45762;-76
2021/11/10 06:53:00;;;;;;;;;68.50;52.00;;;;;5.50;66.92;102374.06;5060843;28;45547;-76
2021/11/10 06:55:25;;;;;;;;;70.00;56.50;;;;;5.49;66.45;102375.78;5061719;28;45489;-76
2021/11/10 06:57:51;;;;;;;;;69.75;54.50;;;;;5.50;66.84;102389.72;5062654;28;45377;-76
2021/11/10 07:00:17;;;;;;;;;71.50;56.25;;;;;5.53;66.50;102404.53;5062578;28;45330;-76
2021/11/10 07:02:43;;;;;;;;;69.50;55.75;;;;;5.53;66.82;102395.00;5062187;28;45420;-76
2021/11/10 07:05:09;;;;;;;;;67.50;52.50;;;;;5.50;66.57;102388.00;5047580;28;46405;-76
2021/11/10 07:07:35;;;;;;;;;69.75;54.50;;;;;5.51;66.46;102396.66;5053315;28;45685;-76
2021/11/10 07:10:01;;;;;;;;;70.75;54.25;;;;;5.51;66.65;102394.06;5057499;28;45438;-76
2021/11/10 07:12:26;;;;;;;;;70.00;53.25;;;;;5.52;66.76;102388.00;5058954;28;45420;-76
2021/11/10 07:14:52;;;;;;;;;68.25;53.50;;;;;5.52;66.50;102377.56;5061099;28;46119;-76
2021/11/10 07:17:17;;;;;;;;;69.75;55.00;;;;;5.51;66.66;102378.41;5055483;28;45504;-76
2021/11/10 07:19:43;;;;;;;;;71.25;53.00;;;;;5.54;66.78;102373.25;5058872;28;45319;-76
2021/11/10 07:22:08;;;;;;;;;69.25;56.25;;;;;5.49;66.85;102372.31;5059674;28;45801;-76
2021/11/10 07:24:34;;;;;;;;;69.25;54.50;;;;;5.51;66.51;102368.88;5053572;28;45855;-76
2021/11/10 07:27:00;;;;;;;;;64.75;52.50;;;;;5.50;66.36;102368.84;5057111;28;45397;-76
2021/11/10 07:29:27;;;;;;;;;70.50;54.75;;;;;5.50;66.77;102371.47;5062296;28;45234;-76
2021/11/10 07:31:52;;;;;;;;;64.25;51.75;;;;;5.51;66.60;102371.47;5060412;28;45439;-76
2021/11/10 07:34:17;;;;;;;;;76.25;57.00;;;;;5.49;66.29;102360.13;5058962;28;45433;-76
2021/11/10 07:36:43;;;;;;;;;78.50;59.00;;;;;5.50;66.60;102350.59;5060362;28;47065;-76
2021/11/10 07:39:08;;;;;;;;;74.75;57.75;;;;;5.51;66.71;102358.44;5051178;28;45386;-76
2021/11/10 07:41:35;;;;;;;;;71.50;56.50;;;;;5.52;66.67;102359.31;5041586;28;45275;-76
2021/11/10 07:44:02;;;;;;;;;67.75;54.00;;;;;5.52;66.43;102354.09;5044393;28;45280;-75
2021/11/10 07:46:30;;;;;;;;;71.50;54.25;;;;;5.53;66.57;102342.81;5055331;28;45674;-76
2021/11/10 07:48:55;;;;;;;;;72.00;58.25;;;;;5.52;66.60;102343.66;5061250;28;45374;-75
2021/11/10 07:51:21;;;;;;;;;70.00;55.25;;;;;5.53;66.57;102347.16;5060000;28;45314;-76
2021/11/10 07:53:47;;;;;;;;;73.50;57.50;;;;;5.55;66.81;102348.03;5060461;28;47003;-76
2021/11/10 07:56:13;;;;;;;;;76.50;57.50;;;;;5.56;67.11;102355.00;5047177;28;45393;-76
2021/11/10 07:58:39;;;;;;;;;72.25;58.00;;;;;5.54;67.02;102357.59;5058520;28;45339;-76
2021/11/10 08:01:10;;;;;;;;;72.25;55.50;;;;;5.58;66.75;102355.94;5058920;28;45520;-76
2021/11/10 08:03:36;;;;;;;;;75.25;59.00;;;;;5.55;66.70;102361.97;5053162;28;45504;-76
2021/11/10 08:06:03;;;;;;;;;72.25;56.50;;;;;5.58;66.78;102374.19;5041037;28;45383;-76
2021/11/10 08:08:30;;;;;;;;;70.75;57.00;;;;;5.59;67.08;102382.03;5041337;28;45459;-80
2021/11/10 08:11:00;;;;;;;;;73.50;57.00;;;;;5.57;66.89;102383.75;5050020;28;45246;-77
2021/11/10 08:13:27;;;;;;;;;72.75;58.50;;;;;5.61;66.93;102389.84;5060266;28;46291;-76
2021/11/10 08:15:56;;;;;;;;;71.50;57.75;;;;;5.63;67.03;102389.03;5059614;28;45530;-76
2021/11/10 08:18:22;;;;;;;;;73.75;56.25;;;;;5.67;67.37;102386.47;5049680;28;45734;-76
2021/11/10 08:20:47;;;;;;;;;77.00;59.00;;;;;5.69;67.09;102374.31;5058000;28;45716;-76
2021/11/10 08:23:18;;;;;;;;;74.50;58.75;;;;;5.70;67.21;102379.59;5058919;28;46142;-77
2021/11/10 08:25:44;;;;;;;;;72.00;56.25;;;;;5.74;67.40;102388.31;5058856;28;45607;-77
2021/11/10 08:28:09;;;;;;;;;66.50;48.25;;;;;5.74;66.74;102390.91;5060940;28;45413;-77
2021/11/10 08:30:35;;;;;;;;;57.50;44.00;;;;;5.76;67.60;102384.00;5059666;28;45563;-77
2021/11/10 08:33:00;;;;;;;;;75.00;58.25;;;;;5.81;67.51;102394.47;5058854;28;45737;-77
2021/11/10 08:35:26;;;;;;;;;75.25;58.50;;;;;5.82;67.21;102377.97;5060341;28;45481;-77
2021/11/10 08:37:52;;;;;;;;;75.00;56.25;;;;;5.86;67.64;102371.94;5060024;28;45799;-77
2021/11/10 08:40:19;;;;;;;;;75.00;57.75;;;;;5.91;67.35;102387.66;5059891;28;45441;-77
2021/11/10 08:42:44;;;;;;;;;74.00;55.75;;;;;5.91;67.23;102387.66;5059583;28;46320;-77
2021/11/10 08:45:17;;;;;;;;;71.75;57.25;;;;;5.92;67.08;102394.66;5058385;28;45472;-77
2021/11/10 08:47:45;;;;;;;;;72.75;57.25;;;;;5.94;67.31;102409.47;5058832;28;45314;-76
2021/11/10 08:50:14;;;;;;;;;74.50;55.75;;;;;5.95;66.89;102405.13;5060107;28;45412;-76
2021/11/10 08:52:40;;;;;;;;;79.75;62.00;;;;;5.95;66.77;102399.91;5044136;28;47104;-76
2021/11/10 08:55:08;;;;;;;;;77.25;58.25;;;;;5.94;67.11;102392.94;5056924;28;45580;-76
2021/11/10 08:57:36;;;;;;;;;79.25;61.25;;;;;5.96;66.92;102392.09;5054097;28;45574;-76
2021/11/10 09:00:04;;;;;;;;;76.50;57.75;;;;;5.98;67.27;102394.72;5050245;28;45529;-76
2021/11/10 09:02:30;;;;;;;;;80.75;61.25;;;;;5.99;67.18;102395.59;5037638;28;48311;-76
2021/11/10 09:04:55;;;;;;;;;82.75;62.00;;;;;6.00;67.25;102395.59;5052407;28;45419;-76
2021/11/10 09:07:21;;;;;;;;;74.25;58.75;;;;;6.02;67.20;102393.91;5047020;28;45958;-76
2021/11/10 09:09:46;;;;;;;;;83.50;60.25;;;;;6.05;67.33;102401.75;5056478;28;45445;-77
2021/11/10 09:12:11;;;;;;;;;79.00;61.00;;;;;6.09;67.05;102402.72;5072127;28;46975;-77
2021/11/10 09:14:37;;;;;;;;;77.50;58.75;;;;;6.08;67.40;102394.00;5052758;28;45272;-77
2021/11/10 09:17:02;;;;;;;;;78.00;60.25;;;;;6.12;67.38;102386.22;5049048;28;45428;-77
2021/11/10 09:19:28;;;;;;;;;76.25;60.25;;;;;6.15;67.10;102378.44;5048724;28;45417;-77
2021/11/10 09:21:53;;;;;;;;;78.75;61.25;;;;;6.18;67.03;102381.06;5055515;28;45559;-77
2021/11/10 09:24:19;;;;;;;;;76.75;60.75;;;;;6.20;67.11;102376.72;5056605;28;45310;-77
2021/11/10 09:26:44;;;;;;;;;78.00;61.00;;;;;6.24;67.09;102380.28;5059500;28;45465;-77
2021/11/10 09:29:10;;;;;;;;;78.25;60.00;;;;;6.27;67.05;102375.09;5059434;28;45339;-77
2021/11/10 09:31:36;;;;;;;;;84.25;66.50;;;;;6.30;66.89;102370.78;5059382;28;45473;-77
2021/11/10 09:34:09;;;;;;;;;74.00;59.00;;;;;6.34;67.35;102381.25;5073221;28;45405;-77
2021/11/10 09:36:39;;;;;;;;;82.75;61.75;;;;;6.35;67.06;102383.00;5058546;28;45329;-77
2021/11/10 09:39:06;;;;;;;;;78.75;61.50;;;;;6.35;67.31;102389.09;5058499;28;45417;-78
2021/11/10 09:41:34;;;;;;;;;79.00;62.50;;;;;6.38;67.30;102383.03;5043830;28;45431;-77
2021/11/10 09:44:00;;;;;;;;;82.75;62.50;;;;;6.41;67.21;102375.25;5038700;28;45856;-77
2021/11/10 09:46:26;;;;;;;;;78.50;61.25;;;;;6.45;66.91;102389.19;5057001;28;45456;-77
2021/11/10 09:48:53;;;;;;;;;83.50;63.50;;;;;6.46;67.39;102397.06;5049211;28;45593;-77
2021/11/10 09:51:18;;;;;;;;;75.25;59.00;;;;;6.45;67.34;102403.16;5039538;28;45375;-77
2021/11/10 09:53:44;;;;;;;;;76.00;60.25;;;;;6.49;67.22;102412.78;5039756;28;45335;-77
2021/11/10 09:56:09;;;;;;;;;80.00;60.75;;;;;6.47;67.68;102411.03;5052854;28;45363;-77
2021/11/10 09:58:36;;;;;;;;;84.00;65.25;;;;;6.52;67.62;102425.88;5046124;28;45575;-77
2021/11/10 10:01:06;;;;;;;;;82.00;65.50;;;;;6.52;67.41;102423.25;5057133;28;45248;-77
2021/11/10 10:03:34;;;;;;;;;83.75;67.00;;;;;6.53;67.42;102422.41;5045622;28;45463;-77
2021/11/10 10:06:00;;;;;;;;;80.75;64.25;;;;;6.55;67.30;102429.38;5068604;28;45484;-77
2021/11/10 10:08:27;;;;;;;;;84.50;67.75;;;;;6.58;67.45;102437.25;5051174;28;45251;-77
2021/11/10 10:10:52;;;;;;;;;87.00;64.00;;;;;6.58;67.44;102438.13;5047849;28;46214;-77
2021/11/10 10:13:20;;;;;;;;;85.25;71.00;;;;;6.63;67.61;102457.34;5042895;28;45397;-77
2021/11/10 10:15:48;;;;;;;;;84.25;69.75;;;;;6.64;67.75;102450.41;5050991;28;45548;-77
2021/11/10 10:18:26;;;;;;;;;79.50;63.75;;;;;6.68;67.47;102444.34;5048659;28;45476;-77
2021/11/10 10:21:05;;;;;;;;;83.50;68.50;;;;;6.74;67.36;102448.75;5054594;28;45400;-76
2021/11/10 10:23:33;;;;;;;;;83.50;66.25;;;;;6.73;67.51;102432.19;5048646;28;45766;-77
2021/11/10 10:26:15;;;;;;;;;86.75;71.00;;;;;6.74;67.45;102426.09;5056167;28;45884;-76
2021/11/10 10:28:45;;;;;;;;;90.25;75.00;;;;;6.78;67.47;102413.06;5059196;28;45367;-76
2021/11/10 10:31:20;;;;;;;;;84.75;69.00;;;;;6.80;67.41;102400.88;5057275;28;45303;-77
2021/11/10 10:33:55;;;;;;;;;88.25;69.75;;;;;6.82;67.77;102393.94;5056110;28;45461;-77
2021/11/10 10:36:23;;;;;;;;;90.50;72.00;;;;;6.84;67.50;102397.47;5056549;28;45197;-76
2021/11/10 10:39:03;;;;;;;;;85.75;69.00;;;;;6.90;67.75;102404.47;5056330;28;45540;-77
2021/11/10 10:41:32;;;;;;;;;83.25;67.50;;;;;6.91;67.91;102391.44;5055820;28;45350;-77
2021/11/10 10:44:04;;;;;;;;;83.75;68.25;;;;;6.96;67.47;102383.63;5052287;28;45239;-76
2021/11/10 10:46:33;;;;;;;;;85.25;67.50;;;;;6.95;67.31;102390.59;5045746;28;45446;-77
2021/11/10 10:49:18;;;;;;;;;85.75;68.00;;;;;7.01;67.29;102386.28;5039208;28;46992;-76
2021/11/10 10:51:51;;;;;;;;;87.25;68.75;;;;;7.02;67.43;102388.00;5038697;28;45302;-76
2021/11/10 10:54:18;;;;;;;;;85.50;69.50;;;;;7.03;67.43;102374.09;5051793;28;45398;-76
2021/11/10 10:56:57;;;;;;;;;83.00;66.00;;;;;7.06;67.54;102368.91;5039884;28;45227;-77
2021/11/10 10:59:26;;;;;;;;;83.50;67.25;;;;;7.06;67.95;102351.44;5038745;28;45363;-77
2021/11/10 11:02:03;;;;;;;;;90.00;73.00;;;;;7.11;67.47;102356.75;5038750;28;46540;-77
2021/11/10 11:04:31;;;;;;;;;88.75;72.50;;;;;7.14;67.67;102353.25;5055679;28;45168;-77
2021/11/10 11:07:09;;;;;;;;;77.75;58.50;;;;;7.19;68.08;102352.41;5059031;28;45374;-77
2021/11/10 11:09:40;;;;;;;;;86.25;74.25;;;;;7.22;67.67;102363.75;5060396;28;46267;-77
2021/11/10 11:12:15;;;;;;;;;86.25;73.50;;;;;7.25;67.71;102350.72;5062124;28;45544;-77
2021/11/10 11:15:02;;;;;;;;;88.00;77.25;;;;;7.26;68.05;102345.47;5056311;28;45196;-77